sensor_id;sensor_type;location;lat;lon;timestamp;P1;durP1;ratioP1;P2;durP2;ratioP2
14373;SDS011;7270;49.004;12.066;2023-12-20T00:01:54;1.40;;;1.30;;
14373;SDS011;7270;49.004;12.066;2023-12-20T00:04:20;1.40;;;1.30;;
14373;SDS011;7270;49.004;12.066;2023-12-20T00:06:46;1.43;;;1.33;;
14373;SDS011;7270;49.004;12.066;2023-12-20T00:09:13;1.40;;;1.30;;
14373;SDS011;7270;49.004;12.066;2023-12-20T00:11:39;1.43;;;1.33;;
14373;SDS011;7270;49.004;12.066;2023-12-20T00:14:07;1.47;;;1.37;;
14373;SDS011;7270;49.004;12.066;2023-12-20T00:16:34;1.50;;;1.40;;
14373;SDS011;7270;49.004;12.066;2023-12-20T00:19:01;1.30;;;1.20;;
14373;SDS011;7270;49.004;12.066;2023-12-20T00:21:27;1.40;;;1.30;;
14373;SDS011;7270;49.004;12.066;2023-12-20T00:23:53;1.37;;;1.30;;
14373;SDS011;7270;49.004;12.066;2023-12-20T00:26:20;1.30;;;1.20;;
14373;SDS011;7270;49.004;12.066;2023-12-20T00:28:46;1.40;;;1.30;;
14373;SDS011;7270;49.004;12.066;2023-12-20T00:31:12;1.40;;;1.30;;
14373;SDS011;7270;49.004;12.066;2023-12-20T00:33:40;1.40;;;1.30;;
14373;SDS011;7270;49.004;12.066;2023-12-20T00:36:08;1.27;;;1.23;;
14373;SDS011;7270;49.004;12.066;2023-12-20T00:38:34;1.30;;;1.20;;
14373;SDS011;7270;49.004;12.066;2023-12-20T00:41:01;1.30;;;1.20;;
14373;SDS011;7270;49.004;12.066;2023-12-20T00:43:27;1.40;;;1.30;;
14373;SDS011;7270;49.004;12.066;2023-12-20T00:45:53;1.47;;;1.37;;
14373;SDS011;7270;49.004;12.066;2023-12-20T00:48:20;1.40;;;1.30;;
14373;SDS011;7270;49.004;12.066;2023-12-20T00:50:48;1.40;;;1.30;;
14373;SDS011;7270;49.004;12.066;2023-12-20T00:53:14;1.40;;;1.30;;
14373;SDS011;7270;49.004;12.066;2023-12-20T00:55:40;1.50;;;1.40;;
14373;SDS011;7270;49.004;12.066;2023-12-20T00:58:09;1.50;;;1.40;;
14373;SDS011;7270;49.004;12.066;2023-12-20T01:00:35;1.37;;;1.27;;
14373;SDS011;7270;49.004;12.066;2023-12-20T01:03:01;1.40;;;1.30;;
14373;SDS011;7270;49.004;12.066;2023-12-20T01:05:27;1.40;;;1.30;;
14373;SDS011;7270;49.004;12.066;2023-12-20T01:07:55;1.40;;;1.30;;
14373;SDS011;7270;49.004;12.066;2023-12-20T01:10:21;1.50;;;1.40;;
14373;SDS011;7270;49.004;12.066;2023-12-20T01:12:48;1.40;;;1.30;;
14373;SDS011;7270;49.004;12.066;2023-12-20T01:15:14;1.40;;;1.30;;
14373;SDS011;7270;49.004;12.066;2023-12-20T01:17:40;1.50;;;1.40;;
14373;SDS011;7270;49.004;12.066;2023-12-20T01:20:07;1.40;;;1.30;;
14373;SDS011;7270;49.004;12.066;2023-12-20T01:22:33;1.50;;;1.40;;
14373;SDS011;7270;49.004;12.066;2023-12-20T01:25:02;1.50;;;1.40;;
14373;SDS011;7270;49.004;12.066;2023-12-20T01:27:28;1.50;;;1.40;;
14373;SDS011;7270;49.004;12.066;2023-12-20T01:29:56;1.40;;;1.30;;
14373;SDS011;7270;49.004;12.066;2023-12-20T01:32:22;1.50;;;1.40;;
14373;SDS011;7270;49.004;12.066;2023-12-20T01:34:48;1.50;;;1.40;;
14373;SDS011;7270;49.004;12.066;2023-12-20T01:37:15;1.60;;;1.50;;
14373;SDS011;7270;49.004;12.066;2023-12-20T01:39:42;1.60;;;1.50;;
14373;SDS011;7270;49.004;12.066;2023-12-20T01:42:10;1.60;;;1.50;;
14373;SDS011;7270;49.004;12.066;2023-12-20T01:44:36;1.70;;;1.60;;
14373;SDS011;7270;49.004;12.066;2023-12-20T01:47:02;1.60;;;1.50;;
14373;SDS011;7270;49.004;12.066;2023-12-20T01:49:29;1.63;;;1.53;;
14373;SDS011;7270;49.004;12.066;2023-12-20T01:51:55;1.70;;;1.60;;
14373;SDS011;7270;49.004;12.066;2023-12-20T01:54:22;1.67;;;1.57;;
14373;SDS011;7270;49.004;12.066;2023-12-20T01:56:48;1.60;;;1.50;;
14373;SDS011;7270;49.004;12.066;2023-12-20T01:59:16;1.70;;;1.60;;
14373;SDS011;7270;49.004;12.066;2023-12-20T02:01:43;1.60;;;1.50;;
14373;SDS011;7270;49.004;12.066;2023-12-20T02:04:10;1.80;;;1.70;;
14373;SDS011;7270;49.004;12.066;2023-12-20T02:06:36;1.70;;;1.60;;
14373;SDS011;7270;49.004;12.066;2023-12-20T02:09:05;1.60;;;1.50;;
14373;SDS011;7270;49.004;12.066;2023-12-20T02:11:31;1.77;;;1.67;;
14373;SDS011;7270;49.004;12.066;2023-12-20T02:13:58;1.70;;;1.60;;
14373;SDS011;7270;49.004;12.066;2023-12-20T02:16:26;1.80;;;1.70;;
14373;SDS011;7270;49.004;12.066;2023-12-20T02:18:52;1.73;;;1.63;;
14373;SDS011;7270;49.004;12.066;2023-12-20T02:21:19;1.70;;;1.60;;
14373;SDS011;7270;49.004;12.066;2023-12-20T02:23:47;1.70;;;1.60;;
14373;SDS011;7270;49.004;12.066;2023-12-20T02:26:13;1.70;;;1.60;;
14373;SDS011;7270;49.004;12.066;2023-12-20T02:28:40;1.80;;;1.70;;
14373;SDS011;7270;49.004;12.066;2023-12-20T02:31:06;1.70;;;1.60;;
14373;SDS011;7270;49.004;12.066;2023-12-20T02:33:32;1.57;;;1.47;;
14373;SDS011;7270;49.004;12.066;2023-12-20T02:35:59;1.70;;;1.60;;
14373;SDS011;7270;49.004;12.066;2023-12-20T02:38:25;1.70;;;1.60;;
14373;SDS011;7270;49.004;12.066;2023-12-20T02:40:53;1.63;;;1.53;;
14373;SDS011;7270;49.004;12.066;2023-12-20T02:43:19;1.70;;;1.60;;
14373;SDS011;7270;49.004;12.066;2023-12-20T02:45:45;1.70;;;1.60;;
14373;SDS011;7270;49.004;12.066;2023-12-20T02:48:12;1.60;;;1.50;;
14373;SDS011;7270;49.004;12.066;2023-12-20T02:50:38;1.80;;;1.70;;
14373;SDS011;7270;49.004;12.066;2023-12-20T02:53:04;1.70;;;1.60;;
14373;SDS011;7270;49.004;12.066;2023-12-20T02:55:31;1.70;;;1.60;;
14373;SDS011;7270;49.004;12.066;2023-12-20T02:57:58;1.70;;;1.60;;
14373;SDS011;7270;49.004;12.066;2023-12-20T03:00:25;1.70;;;1.60;;
14373;SDS011;7270;49.004;12.066;2023-12-20T03:02:51;1.80;;;1.70;;
14373;SDS011;7270;49.004;12.066;2023-12-20T03:05:17;1.70;;;1.60;;
14373;SDS011;7270;49.004;12.066;2023-12-20T03:07:44;1.80;;;1.70;;
14373;SDS011;7270;49.004;12.066;2023-12-20T03:10:10;1.70;;;1.60;;
14373;SDS011;7270;49.004;12.066;2023-12-20T03:12:37;1.70;;;1.60;;
14373;SDS011;7270;49.004;12.066;2023-12-20T03:15:05;1.80;;;1.70;;
14373;SDS011;7270;49.004;12.066;2023-12-20T03:17:31;1.70;;;1.60;;
14373;SDS011;7270;49.004;12.066;2023-12-20T03:19:58;1.70;;;1.60;;
14373;SDS011;7270;49.004;12.066;2023-12-20T03:22:24;1.70;;;1.60;;
14373;SDS011;7270;49.004;12.066;2023-12-20T03:24:50;1.80;;;1.70;;
14373;SDS011;7270;49.004;12.066;2023-12-20T03:27:16;1.80;;;1.70;;
14373;SDS011;7270;49.004;12.066;2023-12-20T03:29:43;1.70;;;1.60;;
14373;SDS011;7270;49.004;12.066;2023-12-20T03:32:10;1.60;;;1.50;;
14373;SDS011;7270;49.004;12.066;2023-12-20T03:34:37;1.60;;;1.50;;
14373;SDS011;7270;49.004;12.066;2023-12-20T03:37:03;1.80;;;1.70;;
14373;SDS011;7270;49.004;12.066;2023-12-20T03:39:29;1.70;;;1.60;;
14373;SDS011;7270;49.004;12.066;2023-12-20T03:41:56;1.67;;;1.57;;
14373;SDS011;7270;49.004;12.066;2023-12-20T03:44:22;1.70;;;1.60;;
14373;SDS011;7270;49.004;12.066;2023-12-20T03:46:48;1.70;;;1.60;;
14373;SDS011;7270;49.004;12.066;2023-12-20T03:49:16;1.60;;;1.50;;
14373;SDS011;7270;49.004;12.066;2023-12-20T03:51:43;1.80;;;1.70;;
14373;SDS011;7270;49.004;12.066;2023-12-20T03:54:09;1.80;;;1.70;;
14373;SDS011;7270;49.004;12.066;2023-12-20T03:56:35;1.70;;;1.60;;
14373;SDS011;7270;49.004;12.066;2023-12-20T03:59:01;1.60;;;1.50;;
14373;SDS011;7270;49.004;12.066;2023-12-20T04:01:28;1.80;;;1.70;;
14373;SDS011;7270;49.004;12.066;2023-12-20T04:03:54;1.80;;;1.70;;
14373;SDS011;7270;49.004;12.066;2023-12-20T04:06:22;1.80;;;1.70;;
14373;SDS011;7270;49.004;12.066;2023-12-20T04:08:48;1.80;;;1.70;;
14373;SDS011;7270;49.004;12.066;2023-12-20T04:11:14;1.80;;;1.70;;
14373;SDS011;7270;49.004;12.066;2023-12-20T04:13:41;1.70;;;1.60;;
14373;SDS011;7270;49.004;12.066;2023-12-20T04:16:07;1.70;;;1.60;;
14373;SDS011;7270;49.004;12.066;2023-12-20T04:18:33;1.80;;;1.70;;
14373;SDS011;7270;49.004;12.066;2023-12-20T04:21:00;1.70;;;1.60;;
14373;SDS011;7270;49.004;12.066;2023-12-20T04:23:27;1.80;;;1.70;;
14373;SDS011;7270;49.004;12.066;2023-12-20T04:25:54;1.77;;;1.67;;
14373;SDS011;7270;49.004;12.066;2023-12-20T04:28:20;1.90;;;1.80;;
14373;SDS011;7270;49.004;12.066;2023-12-20T04:30:46;1.90;;;1.80;;
14373;SDS011;7270;49.004;12.066;2023-12-20T04:33:13;1.80;;;1.70;;
14373;SDS011;7270;49.004;12.066;2023-12-20T04:35:39;1.80;;;1.70;;
14373;SDS011;7270;49.004;12.066;2023-12-20T04:38:07;1.80;;;1.70;;
14373;SDS011;7270;49.004;12.066;2023-12-20T04:40:35;1.90;;;1.80;;
14373;SDS011;7270;49.004;12.066;2023-12-20T04:43:02;1.70;;;1.60;;
14373;SDS011;7270;49.004;12.066;2023-12-20T04:45:28;1.80;;;1.70;;
14373;SDS011;7270;49.004;12.066;2023-12-20T04:47:54;1.80;;;1.70;;
14373;SDS011;7270;49.004;12.066;2023-12-20T04:50:21;1.90;;;1.80;;
14373;SDS011;7270;49.004;12.066;2023-12-20T04:52:47;1.80;;;1.70;;
14373;SDS011;7270;49.004;12.066;2023-12-20T04:55:13;1.80;;;1.70;;
14373;SDS011;7270;49.004;12.066;2023-12-20T04:57:41;1.90;;;1.80;;
14373;SDS011;7270;49.004;12.066;2023-12-20T05:00:08;2.00;;;1.90;;
14373;SDS011;7270;49.004;12.066;2023-12-20T05:02:34;1.90;;;1.80;;
14373;SDS011;7270;49.004;12.066;2023-12-20T05:05:01;1.80;;;1.70;;
14373;SDS011;7270;49.004;12.066;2023-12-20T05:07:27;1.90;;;1.80;;
14373;SDS011;7270;49.004;12.066;2023-12-20T05:09:54;1.90;;;1.80;;
14373;SDS011;7270;49.004;12.066;2023-12-20T05:12:20;1.80;;;1.70;;
14373;SDS011;7270;49.004;12.066;2023-12-20T05:14:48;2.10;;;2.00;;
14373;SDS011;7270;49.004;12.066;2023-12-20T05:17:15;1.80;;;1.70;;
14373;SDS011;7270;49.004;12.066;2023-12-20T05:19:41;2.00;;;1.90;;
14373;SDS011;7270;49.004;12.066;2023-12-20T05:22:08;1.90;;;1.80;;
14373;SDS011;7270;49.004;12.066;2023-12-20T05:24:34;1.80;;;1.70;;
14373;SDS011;7270;49.004;12.066;2023-12-20T05:27:01;1.90;;;1.80;;
14373;SDS011;7270;49.004;12.066;2023-12-20T05:29:27;1.97;;;1.87;;
14373;SDS011;7270;49.004;12.066;2023-12-20T05:31:55;1.90;;;1.80;;
14373;SDS011;7270;49.004;12.066;2023-12-20T05:34:21;2.00;;;1.90;;
14373;SDS011;7270;49.004;12.066;2023-12-20T05:36:48;1.90;;;1.80;;
14373;SDS011;7270;49.004;12.066;2023-12-20T05:39:15;2.00;;;1.90;;
14373;SDS011;7270;49.004;12.066;2023-12-20T05:41:41;2.00;;;1.90;;
14373;SDS011;7270;49.004;12.066;2023-12-20T05:44:07;1.97;;;1.87;;
14373;SDS011;7270;49.004;12.066;2023-12-20T05:46:34;2.00;;;1.90;;
14373;SDS011;7270;49.004;12.066;2023-12-20T05:49:01;2.00;;;1.90;;
14373;SDS011;7270;49.004;12.066;2023-12-20T05:51:28;2.00;;;1.90;;
14373;SDS011;7270;49.004;12.066;2023-12-20T05:53:54;2.00;;;1.90;;
14373;SDS011;7270;49.004;12.066;2023-12-20T05:56:21;2.10;;;2.00;;
14373;SDS011;7270;49.004;12.066;2023-12-20T05:59:04;1.90;;;1.80;;
14373;SDS011;7270;49.004;12.066;2023-12-20T06:01:31;2.00;;;1.90;;
14373;SDS011;7270;49.004;12.066;2023-12-20T06:03:57;2.00;;;1.90;;
14373;SDS011;7270;49.004;12.066;2023-12-20T06:06:25;1.90;;;1.80;;
14373;SDS011;7270;49.004;12.066;2023-12-20T06:08:51;1.90;;;1.80;;
14373;SDS011;7270;49.004;12.066;2023-12-20T06:11:17;2.10;;;2.00;;
14373;SDS011;7270;49.004;12.066;2023-12-20T06:13:44;1.90;;;1.80;;
14373;SDS011;7270;49.004;12.066;2023-12-20T06:16:10;2.00;;;1.90;;
14373;SDS011;7270;49.004;12.066;2023-12-20T06:18:36;1.90;;;1.80;;
14373;SDS011;7270;49.004;12.066;2023-12-20T06:21:04;2.00;;;1.90;;
14373;SDS011;7270;49.004;12.066;2023-12-20T06:23:33;1.80;;;1.70;;
14373;SDS011;7270;49.004;12.066;2023-12-20T06:25:59;2.00;;;1.90;;
14373;SDS011;7270;49.004;12.066;2023-12-20T06:28:26;2.10;;;2.00;;
14373;SDS011;7270;49.004;12.066;2023-12-20T06:30:52;1.90;;;1.80;;
14373;SDS011;7270;49.004;12.066;2023-12-20T06:33:20;2.17;;;2.07;;
14373;SDS011;7270;49.004;12.066;2023-12-20T06:35:47;2.10;;;2.00;;
14373;SDS011;7270;49.004;12.066;2023-12-20T06:38:13;2.00;;;1.90;;
14373;SDS011;7270;49.004;12.066;2023-12-20T06:40:41;1.90;;;1.80;;
14373;SDS011;7270;49.004;12.066;2023-12-20T06:43:08;2.00;;;1.90;;
14373;SDS011;7270;49.004;12.066;2023-12-20T06:45:36;2.00;;;1.90;;
14373;SDS011;7270;49.004;12.066;2023-12-20T06:48:03;2.00;;;1.90;;
14373;SDS011;7270;49.004;12.066;2023-12-20T06:50:29;2.00;;;1.90;;
14373;SDS011;7270;49.004;12.066;2023-12-20T06:52:55;2.00;;;1.90;;
14373;SDS011;7270;49.004;12.066;2023-12-20T06:55:22;1.90;;;1.80;;
14373;SDS011;7270;49.004;12.066;2023-12-20T06:57:49;2.00;;;1.90;;
14373;SDS011;7270;49.004;12.066;2023-12-20T07:00:16;2.00;;;1.90;;
14373;SDS011;7270;49.004;12.066;2023-12-20T07:02:43;2.00;;;1.90;;
14373;SDS011;7270;49.004;12.066;2023-12-20T07:05:09;2.10;;;2.00;;
14373;SDS011;7270;49.004;12.066;2023-12-20T07:07:36;1.90;;;1.80;;
14373;SDS011;7270;49.004;12.066;2023-12-20T07:10:02;1.90;;;1.80;;
14373;SDS011;7270;49.004;12.066;2023-12-20T07:12:29;1.80;;;1.70;;
14373;SDS011;7270;49.004;12.066;2023-12-20T07:14:56;2.07;;;1.97;;
14373;SDS011;7270;49.004;12.066;2023-12-20T07:17:23;2.00;;;1.90;;
14373;SDS011;7270;49.004;12.066;2023-12-20T07:19:49;2.00;;;1.90;;
14373;SDS011;7270;49.004;12.066;2023-12-20T07:22:15;1.90;;;1.80;;
14373;SDS011;7270;49.004;12.066;2023-12-20T07:24:45;1.90;;;1.80;;
14373;SDS011;7270;49.004;12.066;2023-12-20T07:27:13;1.80;;;1.70;;
14373;SDS011;7270;49.004;12.066;2023-12-20T07:29:39;1.90;;;1.80;;
14373;SDS011;7270;49.004;12.066;2023-12-20T07:32:07;1.90;;;1.80;;
14373;SDS011;7270;49.004;12.066;2023-12-20T07:34:33;2.03;;;1.93;;
14373;SDS011;7270;49.004;12.066;2023-12-20T07:37:00;2.10;;;2.00;;
14373;SDS011;7270;49.004;12.066;2023-12-20T07:39:26;1.90;;;1.80;;
14373;SDS011;7270;49.004;12.066;2023-12-20T07:41:52;1.90;;;1.80;;
14373;SDS011;7270;49.004;12.066;2023-12-20T07:44:19;1.90;;;1.80;;
14373;SDS011;7270;49.004;12.066;2023-12-20T07:46:45;2.20;;;2.10;;
14373;SDS011;7270;49.004;12.066;2023-12-20T07:49:14;1.90;;;1.80;;
14373;SDS011;7270;49.004;12.066;2023-12-20T07:51:41;2.00;;;1.90;;
14373;SDS011;7270;49.004;12.066;2023-12-20T07:54:07;2.00;;;1.90;;
14373;SDS011;7270;49.004;12.066;2023-12-20T07:56:34;2.00;;;1.90;;
14373;SDS011;7270;49.004;12.066;2023-12-20T07:59:00;1.80;;;1.70;;
14373;SDS011;7270;49.004;12.066;2023-12-20T08:01:26;1.90;;;1.80;;
14373;SDS011;7270;49.004;12.066;2023-12-20T08:03:53;2.10;;;2.00;;
14373;SDS011;7270;49.004;12.066;2023-12-20T08:06:20;1.90;;;1.80;;
14373;SDS011;7270;49.004;12.066;2023-12-20T08:08:47;1.90;;;1.80;;
14373;SDS011;7270;49.004;12.066;2023-12-20T08:11:13;1.90;;;1.80;;
14373;SDS011;7270;49.004;12.066;2023-12-20T08:13:39;2.10;;;2.00;;
14373;SDS011;7270;49.004;12.066;2023-12-20T08:16:06;2.00;;;1.90;;
14373;SDS011;7270;49.004;12.066;2023-12-20T08:18:32;1.90;;;1.80;;
14373;SDS011;7270;49.004;12.066;2023-12-20T08:20:59;1.90;;;1.80;;
14373;SDS011;7270;49.004;12.066;2023-12-20T08:23:27;2.10;;;2.00;;
14373;SDS011;7270;49.004;12.066;2023-12-20T08:25:54;1.90;;;1.80;;
14373;SDS011;7270;49.004;12.066;2023-12-20T08:28:20;1.80;;;1.70;;
14373;SDS011;7270;49.004;12.066;2023-12-20T08:30:46;1.90;;;1.80;;
14373;SDS011;7270;49.004;12.066;2023-12-20T08:33:12;1.90;;;1.80;;
14373;SDS011;7270;49.004;12.066;2023-12-20T08:35:39;2.00;;;1.90;;
14373;SDS011;7270;49.004;12.066;2023-12-20T08:38:06;1.80;;;1.70;;
14373;SDS011;7270;49.004;12.066;2023-12-20T08:40:33;1.90;;;1.80;;
14373;SDS011;7270;49.004;12.066;2023-12-20T08:43:00;1.90;;;1.80;;
14373;SDS011;7270;49.004;12.066;2023-12-20T08:45:27;1.90;;;1.80;;
14373;SDS011;7270;49.004;12.066;2023-12-20T08:47:53;2.00;;;1.90;;
14373;SDS011;7270;49.004;12.066;2023-12-20T08:50:19;1.90;;;1.80;;
14373;SDS011;7270;49.004;12.066;2023-12-20T08:52:46;1.90;;;1.80;;
14373;SDS011;7270;49.004;12.066;2023-12-20T08:55:12;1.90;;;1.80;;
14373;SDS011;7270;49.004;12.066;2023-12-20T08:57:41;1.80;;;1.70;;
14373;SDS011;7270;49.004;12.066;2023-12-20T09:00:08;1.80;;;1.70;;
14373;SDS011;7270;49.004;12.066;2023-12-20T09:02:34;1.80;;;1.70;;
14373;SDS011;7270;49.004;12.066;2023-12-20T09:05:01;1.80;;;1.70;;
14373;SDS011;7270;49.004;12.066;2023-12-20T09:07:27;1.80;;;1.70;;
14373;SDS011;7270;49.004;12.066;2023-12-20T09:09:55;1.80;;;1.70;;
14373;SDS011;7270;49.004;12.066;2023-12-20T09:12:21;1.80;;;1.70;;
14373;SDS011;7270;49.004;12.066;2023-12-20T09:14:49;1.80;;;1.70;;
14373;SDS011;7270;49.004;12.066;2023-12-20T09:17:16;1.87;;;1.77;;
14373;SDS011;7270;49.004;12.066;2023-12-20T09:19:42;1.70;;;1.60;;
14373;SDS011;7270;49.004;12.066;2023-12-20T09:22:09;1.80;;;1.70;;
14373;SDS011;7270;49.004;12.066;2023-12-20T09:24:36;1.60;;;1.50;;
14373;SDS011;7270;49.004;12.066;2023-12-20T09:27:03;1.80;;;1.70;;
14373;SDS011;7270;49.004;12.066;2023-12-20T09:29:30;1.70;;;1.60;;
14373;SDS011;7270;49.004;12.066;2023-12-20T09:31:58;1.70;;;1.60;;
14373;SDS011;7270;49.004;12.066;2023-12-20T09:34:24;1.70;;;1.60;;
14373;SDS011;7270;49.004;12.066;2023-12-20T09:36:52;1.70;;;1.60;;
14373;SDS011;7270;49.004;12.066;2023-12-20T09:39:18;1.70;;;1.60;;
14373;SDS011;7270;49.004;12.066;2023-12-20T09:41:46;1.70;;;1.60;;
14373;SDS011;7270;49.004;12.066;2023-12-20T09:44:15;1.63;;;1.53;;
14373;SDS011;7270;49.004;12.066;2023-12-20T09:46:44;1.60;;;1.50;;
14373;SDS011;7270;49.004;12.066;2023-12-20T09:49:12;1.50;;;1.40;;
14373;SDS011;7270;49.004;12.066;2023-12-20T09:51:39;1.57;;;1.47;;
14373;SDS011;7270;49.004;12.066;2023-12-20T09:54:05;1.50;;;1.40;;
14373;SDS011;7270;49.004;12.066;2023-12-20T09:56:32;1.40;;;1.30;;
14373;SDS011;7270;49.004;12.066;2023-12-20T09:58:59;1.50;;;1.40;;
14373;SDS011;7270;49.004;12.066;2023-12-20T10:01:25;1.40;;;1.30;;
14373;SDS011;7270;49.004;12.066;2023-12-20T10:03:53;1.60;;;1.50;;
14373;SDS011;7270;49.004;12.066;2023-12-20T10:06:22;1.60;;;1.50;;
14373;SDS011;7270;49.004;12.066;2023-12-20T10:08:48;1.50;;;1.40;;
14373;SDS011;7270;49.004;12.066;2023-12-20T10:11:14;1.40;;;1.30;;
14373;SDS011;7270;49.004;12.066;2023-12-20T10:13:41;1.60;;;1.50;;
14373;SDS011;7270;49.004;12.066;2023-12-20T10:16:07;1.50;;;1.40;;
14373;SDS011;7270;49.004;12.066;2023-12-20T10:18:33;1.50;;;1.40;;
14373;SDS011;7270;49.004;12.066;2023-12-20T10:21:00;1.50;;;1.40;;
14373;SDS011;7270;49.004;12.066;2023-12-20T10:23:29;1.60;;;1.50;;
14373;SDS011;7270;49.004;12.066;2023-12-20T10:25:56;1.40;;;1.30;;
14373;SDS011;7270;49.004;12.066;2023-12-20T10:28:23;1.20;;;1.20;;
14373;SDS011;7270;49.004;12.066;2023-12-20T10:30:52;1.60;;;1.50;;
14373;SDS011;7270;49.004;12.066;2023-12-20T10:33:23;1.50;;;1.40;;
14373;SDS011;7270;49.004;12.066;2023-12-20T10:35:50;1.60;;;1.50;;
14373;SDS011;7270;49.004;12.066;2023-12-20T10:38:16;1.40;;;1.30;;
14373;SDS011;7270;49.004;12.066;2023-12-20T10:40:44;1.50;;;1.40;;
14373;SDS011;7270;49.004;12.066;2023-12-20T10:43:11;1.50;;;1.40;;
14373;SDS011;7270;49.004;12.066;2023-12-20T10:45:37;1.50;;;1.40;;
14373;SDS011;7270;49.004;12.066;2023-12-20T10:48:04;1.60;;;1.50;;
14373;SDS011;7270;49.004;12.066;2023-12-20T10:50:31;1.40;;;1.30;;
14373;SDS011;7270;49.004;12.066;2023-12-20T10:52:57;1.50;;;1.40;;
14373;SDS011;7270;49.004;12.066;2023-12-20T10:55:24;1.50;;;1.40;;
14373;SDS011;7270;49.004;12.066;2023-12-20T10:57:52;1.40;;;1.30;;
14373;SDS011;7270;49.004;12.066;2023-12-20T11:00:20;1.50;;;1.40;;
14373;SDS011;7270;49.004;12.066;2023-12-20T11:02:48;1.60;;;1.50;;
14373;SDS011;7270;49.004;12.066;2023-12-20T11:05:19;1.40;;;1.30;;
14373;SDS011;7270;49.004;12.066;2023-12-20T11:07:47;1.60;;;1.50;;
14373;SDS011;7270;49.004;12.066;2023-12-20T11:10:15;1.50;;;1.40;;
14373;SDS011;7270;49.004;12.066;2023-12-20T11:12:43;1.40;;;1.30;;
14373;SDS011;7270;49.004;12.066;2023-12-20T11:15:13;1.50;;;1.40;;
14373;SDS011;7270;49.004;12.066;2023-12-20T11:17:40;1.60;;;1.50;;
14373;SDS011;7270;49.004;12.066;2023-12-20T11:20:07;1.47;;;1.37;;
14373;SDS011;7270;49.004;12.066;2023-12-20T11:22:35;1.50;;;1.40;;
14373;SDS011;7270;49.004;12.066;2023-12-20T11:25:03;1.50;;;1.40;;
14373;SDS011;7270;49.004;12.066;2023-12-20T11:27:30;1.50;;;1.40;;
14373;SDS011;7270;49.004;12.066;2023-12-20T11:29:57;1.60;;;1.50;;
14373;SDS011;7270;49.004;12.066;2023-12-20T11:32:32;1.50;;;1.40;;
14373;SDS011;7270;49.004;12.066;2023-12-20T11:35:00;1.50;;;1.40;;
14373;SDS011;7270;49.004;12.066;2023-12-20T11:37:30;1.60;;;1.50;;
14373;SDS011;7270;49.004;12.066;2023-12-20T11:40:00;1.60;;;1.50;;
14373;SDS011;7270;49.004;12.066;2023-12-20T11:42:27;1.50;;;1.40;;
14373;SDS011;7270;49.004;12.066;2023-12-20T11:44:53;1.50;;;1.40;;
14373;SDS011;7270;49.004;12.066;2023-12-20T11:47:20;1.50;;;1.40;;
14373;SDS011;7270;49.004;12.066;2023-12-20T11:49:48;1.50;;;1.40;;
14373;SDS011;7270;49.004;12.066;2023-12-20T11:52:16;1.50;;;1.40;;
14373;SDS011;7270;49.004;12.066;2023-12-20T11:54:42;1.50;;;1.40;;
14373;SDS011;7270;49.004;12.066;2023-12-20T11:57:09;1.50;;;1.40;;
14373;SDS011;7270;49.004;12.066;2023-12-20T11:59:35;1.40;;;1.30;;
14373;SDS011;7270;49.004;12.066;2023-12-20T12:02:02;1.50;;;1.40;;
14373;SDS011;7270;49.004;12.066;2023-12-20T12:04:28;1.50;;;1.40;;
14373;SDS011;7270;49.004;12.066;2023-12-20T12:06:56;1.50;;;1.40;;
14373;SDS011;7270;49.004;12.066;2023-12-20T12:09:22;1.50;;;1.40;;
14373;SDS011;7270;49.004;12.066;2023-12-20T12:11:49;1.50;;;1.40;;
14373;SDS011;7270;49.004;12.066;2023-12-20T12:14:15;1.50;;;1.40;;
14373;SDS011;7270;49.004;12.066;2023-12-20T12:16:42;1.60;;;1.50;;
14373;SDS011;7270;49.004;12.066;2023-12-20T12:19:10;1.60;;;1.50;;
14373;SDS011;7270;49.004;12.066;2023-12-20T12:21:45;1.57;;;1.47;;
14373;SDS011;7270;49.004;12.066;2023-12-20T12:24:13;1.40;;;1.30;;
14373;SDS011;7270;49.004;12.066;2023-12-20T12:26:40;1.50;;;1.40;;
14373;SDS011;7270;49.004;12.066;2023-12-20T12:29:07;1.50;;;1.40;;
14373;SDS011;7270;49.004;12.066;2023-12-20T12:31:34;1.60;;;1.50;;
14373;SDS011;7270;49.004;12.066;2023-12-20T12:34:01;1.60;;;1.50;;
14373;SDS011;7270;49.004;12.066;2023-12-20T12:36:27;1.60;;;1.50;;
14373;SDS011;7270;49.004;12.066;2023-12-20T12:38:55;1.50;;;1.40;;
14373;SDS011;7270;49.004;12.066;2023-12-20T12:41:23;1.60;;;1.50;;
14373;SDS011;7270;49.004;12.066;2023-12-20T12:43:49;1.60;;;1.50;;
14373;SDS011;7270;49.004;12.066;2023-12-20T12:46:16;1.70;;;1.60;;
14373;SDS011;7270;49.004;12.066;2023-12-20T12:48:42;1.70;;;1.60;;
14373;SDS011;7270;49.004;12.066;2023-12-20T12:51:08;1.60;;;1.50;;
14373;SDS011;7270;49.004;12.066;2023-12-20T12:53:38;1.43;;;1.33;;
14373;SDS011;7270;49.004;12.066;2023-12-20T12:56:04;1.60;;;1.50;;
14373;SDS011;7270;49.004;12.066;2023-12-20T12:58:32;1.70;;;1.60;;
14373;SDS011;7270;49.004;12.066;2023-12-20T13:00:58;1.70;;;1.60;;
14373;SDS011;7270;49.004;12.066;2023-12-20T13:03:25;1.60;;;1.50;;
14373;SDS011;7270;49.004;12.066;2023-12-20T13:05:50;1.70;;;1.60;;
14373;SDS011;7270;49.004;12.066;2023-12-20T13:08:16;1.60;;;1.50;;
14373;SDS011;7270;49.004;12.066;2023-12-20T13:10:43;1.60;;;1.50;;
14373;SDS011;7270;49.004;12.066;2023-12-20T13:13:09;1.70;;;1.60;;
14373;SDS011;7270;49.004;12.066;2023-12-20T13:15:37;1.70;;;1.60;;
14373;SDS011;7270;49.004;12.066;2023-12-20T13:18:04;1.70;;;1.60;;
14373;SDS011;7270;49.004;12.066;2023-12-20T13:20:31;1.60;;;1.50;;
14373;SDS011;7270;49.004;12.066;2023-12-20T13:22:58;1.60;;;1.50;;
14373;SDS011;7270;49.004;12.066;2023-12-20T13:25:24;1.60;;;1.50;;
14373;SDS011;7270;49.004;12.066;2023-12-20T13:27:50;1.40;;;1.30;;
14373;SDS011;7270;49.004;12.066;2023-12-20T13:30:17;1.50;;;1.40;;
14373;SDS011;7270;49.004;12.066;2023-12-20T13:32:45;1.70;;;1.60;;
14373;SDS011;7270;49.004;12.066;2023-12-20T13:35:11;1.60;;;1.50;;
14373;SDS011;7270;49.004;12.066;2023-12-20T13:37:38;1.70;;;1.60;;
14373;SDS011;7270;49.004;12.066;2023-12-20T13:40:05;1.50;;;1.40;;
14373;SDS011;7270;49.004;12.066;2023-12-20T13:42:31;1.70;;;1.60;;
14373;SDS011;7270;49.004;12.066;2023-12-20T13:44:58;1.60;;;1.50;;
14373;SDS011;7270;49.004;12.066;2023-12-20T13:47:24;1.60;;;1.50;;
14373;SDS011;7270;49.004;12.066;2023-12-20T13:49:52;1.50;;;1.40;;
14373;SDS011;7270;49.004;12.066;2023-12-20T13:52:18;1.60;;;1.50;;
14373;SDS011;7270;49.004;12.066;2023-12-20T13:54:44;1.60;;;1.50;;
14373;SDS011;7270;49.004;12.066;2023-12-20T13:57:11;1.50;;;1.40;;
14373;SDS011;7270;49.004;12.066;2023-12-20T13:59:37;1.70;;;1.60;;
14373;SDS011;7270;49.004;12.066;2023-12-20T14:02:03;1.70;;;1.60;;
14373;SDS011;7270;49.004;12.066;2023-12-20T14:04:30;1.70;;;1.60;;
14373;SDS011;7270;49.004;12.066;2023-12-20T14:06:58;1.60;;;1.50;;
14373;SDS011;7270;49.004;12.066;2023-12-20T14:09:24;1.60;;;1.50;;
14373;SDS011;7270;49.004;12.066;2023-12-20T14:11:50;1.70;;;1.60;;
14373;SDS011;7270;49.004;12.066;2023-12-20T14:14:17;1.60;;;1.50;;
14373;SDS011;7270;49.004;12.066;2023-12-20T14:16:43;1.60;;;1.50;;
14373;SDS011;7270;49.004;12.066;2023-12-20T14:19:10;1.60;;;1.50;;
14373;SDS011;7270;49.004;12.066;2023-12-20T14:21:36;1.60;;;1.50;;
14373;SDS011;7270;49.004;12.066;2023-12-20T14:24:04;1.43;;;1.33;;
14373;SDS011;7270;49.004;12.066;2023-12-20T14:26:31;1.57;;;1.47;;
14373;SDS011;7270;49.004;12.066;2023-12-20T14:28:57;1.50;;;1.40;;
14373;SDS011;7270;49.004;12.066;2023-12-20T14:31:23;1.70;;;1.60;;
14373;SDS011;7270;49.004;12.066;2023-12-20T14:33:50;1.60;;;1.50;;
14373;SDS011;7270;49.004;12.066;2023-12-20T14:36:18;1.60;;;1.50;;
14373;SDS011;7270;49.004;12.066;2023-12-20T14:38:45;1.60;;;1.50;;
14373;SDS011;7270;49.004;12.066;2023-12-20T14:41:13;1.60;;;1.50;;
14373;SDS011;7270;49.004;12.066;2023-12-20T14:43:39;1.50;;;1.40;;
14373;SDS011;7270;49.004;12.066;2023-12-20T14:46:05;1.50;;;1.40;;